createdAt,value
2023-01-18T00:02:02.767Z,33.90
2023-01-18T00:04:35.219Z,30.65
2023-01-18T00:07:07.325Z,24.85
2023-01-18T00:09:39.493Z,28.07
2023-01-18T00:12:11.677Z,33.55
2023-01-18T00:14:44.197Z,29.82
2023-01-18T00:17:17.507Z,33.78
2023-01-18T00:19:49.519Z,31.35
2023-01-18T00:22:34.686Z,26.02
2023-01-18T00:25:06.981Z,33.02
2023-01-18T00:27:39.921Z,36.35
2023-01-18T00:30:12.647Z,33.48
2023-01-18T00:32:45.182Z,32.05
2023-01-18T00:35:17.396Z,36.88
2023-01-18T00:37:51.892Z,32.45
2023-01-18T00:40:26.232Z,34.10
2023-01-18T00:43:15.000Z,33.50
2023-01-18T00:45:47.414Z,34.33
2023-01-18T00:48:19.599Z,33.78
2023-01-18T00:50:51.526Z,29.75
2023-01-18T00:53:23.658Z,34.18
2023-01-18T00:55:56.298Z,35.70
2023-01-18T00:58:29.104Z,32.30
2023-01-18T01:01:01.297Z,32.30
2023-01-18T01:03:35.022Z,27.50
2023-01-18T01:06:24.845Z,34.18
2023-01-18T01:08:56.910Z,36.10
2023-01-18T01:11:29.141Z,34.95
2023-01-18T01:14:19.191Z,37.23
2023-01-18T01:17:08.965Z,32.85
2023-01-18T01:19:58.485Z,31.80
2023-01-18T01:22:48.367Z,32.03
2023-01-18T01:25:38.023Z,24.12
2023-01-18T01:28:10.247Z,32.65
2023-01-18T01:30:42.528Z,28.80
2023-01-18T01:33:14.926Z,36.60
2023-01-18T01:35:47.195Z,27.17
2023-01-18T01:38:19.234Z,24.15
2023-01-18T01:41:00.542Z,29.12
2023-01-18T01:43:41.554Z,38.17
2023-01-18T01:46:33.132Z,33.70
2023-01-18T01:49:08.111Z,32.50
2023-01-18T01:51:43.477Z,37.38
2023-01-18T01:54:18.320Z,34.55
2023-01-18T01:56:53.093Z,27.60
2023-01-18T01:59:25.838Z,33.42
2023-01-18T02:01:59.380Z,35.48
2023-01-18T02:04:32.260Z,23.47
2023-01-18T02:07:04.484Z,31.17
2023-01-18T02:09:36.630Z,26.40
2023-01-18T02:12:08.973Z,30.62
2023-01-18T02:14:41.466Z,29.90
2023-01-18T02:17:46.548Z,31.15
2023-01-18T02:23:27.579Z,26.77
2023-01-18T02:26:18.852Z,26.87
2023-01-18T02:29:02.661Z,29.30
2023-01-18T02:31:37.739Z,28.85
2023-01-18T02:34:16.631Z,26.25
2023-01-18T02:37:12.786Z,25.90
2023-01-18T02:39:54.167Z,24.55
2023-01-18T02:42:46.828Z,28.47
2023-01-18T02:45:54.397Z,32.90
2023-01-18T02:48:28.238Z,36.53
2023-01-18T02:51:00.399Z,36.53
2023-01-18T02:53:34.528Z,32.83
2023-01-18T02:56:21.604Z,24.10
2023-01-18T02:59:20.526Z,27.60
2023-01-18T03:02:04.087Z,30.12
2023-01-18T03:04:39.390Z,33.02
2023-01-18T03:07:29.641Z,28.40
2023-01-18T03:10:05.149Z,28.07
2023-01-18T03:12:52.024Z,31.02
2023-01-18T03:15:42.318Z,29.60
2023-01-18T03:18:20.092Z,28.50
2023-01-18T03:20:57.963Z,27.17
2023-01-18T03:23:38.412Z,28.95
2023-01-18T03:26:15.417Z,35.33
2023-01-18T03:29:07.652Z,34.33
2023-01-18T03:32:00.914Z,32.23
2023-01-18T03:34:38.568Z,27.42
2023-01-18T03:37:13.779Z,25.75
2023-01-18T03:39:49.405Z,32.70
2023-01-18T03:42:28.114Z,29.23
2023-01-18T03:45:03.219Z,30.32
2023-01-18T03:47:35.680Z,25.68
2023-01-18T03:50:08.275Z,25.50
2023-01-18T03:52:45.903Z,28.35
2023-01-18T03:55:24.078Z,23.07
2023-01-18T03:58:13.431Z,26.37
2023-01-18T04:00:45.563Z,22.15
2023-01-18T04:03:17.582Z,25.82
2023-01-18T04:05:50.476Z,28.52
2023-01-18T04:08:22.525Z,23.38
2023-01-18T04:10:54.956Z,21.33
2023-01-18T04:13:27.912Z,25.95
2023-01-18T04:16:00.231Z,21.68
2023-01-18T04:18:32.441Z,25.35
2023-01-18T04:21:05.087Z,24.92
2023-01-18T04:23:37.295Z,22.30
2023-01-18T04:26:11.780Z,22.60
2023-01-18T04:28:44.115Z,22.25
2023-01-18T04:31:16.320Z,31.80
2023-01-18T04:33:49.889Z,21.15
2023-01-18T04:36:23.255Z,21.87
2023-01-18T04:38:56.403Z,29.85
2023-01-18T04:41:29.736Z,22.17
2023-01-18T04:44:02.929Z,23.20
2023-01-18T04:46:35.337Z,24.95
2023-01-18T04:49:10.186Z,26.65
2023-01-18T04:51:43.462Z,26.60
2023-01-18T04:54:19.033Z,27.48
2023-01-18T04:56:52.109Z,21.20
2023-01-18T04:59:24.340Z,20.82
2023-01-18T05:01:56.456Z,20.72
2023-01-18T05:04:29.201Z,22.35
2023-01-18T05:07:02.453Z,22.60
2023-01-18T05:09:35.065Z,19.90
2023-01-18T05:12:07.938Z,25.40
2023-01-18T05:14:40.485Z,21.48
2023-01-18T05:17:26.184Z,23.35
2023-01-18T05:20:00.538Z,22.22
2023-01-18T05:22:33.441Z,23.55
2023-01-18T05:25:10.449Z,17.15
2023-01-18T05:27:43.115Z,27.45
2023-01-18T05:30:15.411Z,22.58
2023-01-18T05:32:47.827Z,21.95
2023-01-18T05:35:20.507Z,27.67
2023-01-18T05:37:53.177Z,28.32
2023-01-18T05:40:25.711Z,19.05
2023-01-18T05:42:58.661Z,20.68
2023-01-18T05:45:31.453Z,21.77
2023-01-18T05:48:04.271Z,24.45
2023-01-18T05:50:36.943Z,19.80
2023-01-18T05:55:43.475Z,20.45
2023-01-18T05:58:16.382Z,19.73
2023-01-18T06:00:49.820Z,17.00
2023-01-18T06:03:22.856Z,16.60
2023-01-18T06:05:55.624Z,16.67
2023-01-18T06:08:29.196Z,19.97
2023-01-18T06:11:02.366Z,25.55
2023-01-18T06:13:34.730Z,18.92
2023-01-18T06:16:07.720Z,26.73
2023-01-18T06:18:41.602Z,22.02
2023-01-18T06:23:45.330Z,23.20
2023-01-18T06:26:18.753Z,22.33
2023-01-18T06:28:50.962Z,22.07
2023-01-18T06:31:25.349Z,22.75
2023-01-18T06:33:57.909Z,22.27
2023-01-18T06:36:30.341Z,20.32
2023-01-18T06:39:02.544Z,25.50
2023-01-18T06:41:35.145Z,19.85
2023-01-18T06:44:07.810Z,25.80
2023-01-18T06:46:39.720Z,33.45
2023-01-18T06:49:12.564Z,29.57
2023-01-18T06:51:44.904Z,17.37
2023-01-18T06:54:17.286Z,22.25
2023-01-18T06:56:49.460Z,22.02
2023-01-18T06:59:21.923Z,18.90
2023-01-18T07:01:55.828Z,20.72
2023-01-18T07:04:29.007Z,20.10
2023-01-18T07:07:01.575Z,24.32
2023-01-18T07:09:33.698Z,20.27
2023-01-18T07:12:06.676Z,24.25
2023-01-18T07:14:38.778Z,19.10
2023-01-18T07:17:11.273Z,22.40
2023-01-18T07:19:45.011Z,24.82
2023-01-18T07:22:17.945Z,20.15
2023-01-18T07:24:50.671Z,22.70
2023-01-18T07:27:22.928Z,19.40
2023-01-18T07:29:56.184Z,22.62
2023-01-18T07:32:28.651Z,20.20
2023-01-18T07:35:00.787Z,22.05
2023-01-18T07:37:36.138Z,20.20
2023-01-18T07:40:10.911Z,20.40
2023-01-18T07:42:43.277Z,17.40
2023-01-18T07:45:15.997Z,21.48
2023-01-18T07:47:48.335Z,33.33
2023-01-18T07:50:22.573Z,22.85
2023-01-18T07:55:26.632Z,16.55
2023-01-18T07:57:59.344Z,24.05
2023-01-18T08:00:32.389Z,22.22
2023-01-18T08:03:05.189Z,21.35
2023-01-18T08:05:37.621Z,22.25
2023-01-18T08:08:11.719Z,23.47
2023-01-18T08:10:46.528Z,22.52
2023-01-18T08:13:19.919Z,27.48
2023-01-18T08:15:54.281Z,25.43
2023-01-18T08:18:26.679Z,25.50
2023-01-18T08:20:59.288Z,22.55
2023-01-18T08:23:31.784Z,23.07
2023-01-18T08:26:05.147Z,20.52
2023-01-18T08:28:38.224Z,32.38
2023-01-18T08:31:17.073Z,21.15
2023-01-18T08:33:51.544Z,22.22
2023-01-18T08:36:26.566Z,23.18
2023-01-18T08:38:59.795Z,20.45
2023-01-18T08:41:32.062Z,19.90
2023-01-18T08:44:04.318Z,24.95
2023-01-18T08:46:37.116Z,18.75
2023-01-18T08:49:10.100Z,29.30
2023-01-18T08:51:42.352Z,47.83
2023-01-18T08:54:14.652Z,19.32
2023-01-18T08:56:46.897Z,20.35
2023-01-18T08:59:20.223Z,26.82
2023-01-18T09:01:52.626Z,22.30
2023-01-18T09:04:24.984Z,27.45
2023-01-18T09:06:57.362Z,21.42
2023-01-18T09:09:30.839Z,20.77
2023-01-18T09:12:04.158Z,26.17
2023-01-18T09:14:37.355Z,33.78
2023-01-18T09:17:20.912Z,28.90
2023-01-18T09:19:54.749Z,23.73
2023-01-18T09:22:27.211Z,22.42
2023-01-18T09:25:00.343Z,17.82
2023-01-18T09:30:06.364Z,19.07
2023-01-18T09:32:39.308Z,26.03
2023-01-18T09:35:14.468Z,27.90
2023-01-18T09:37:48.079Z,26.93
2023-01-18T09:40:23.064Z,28.20
2023-01-18T09:42:55.889Z,24.25
2023-01-18T09:45:35.241Z,27.60
2023-01-18T09:48:11.317Z,30.88
2023-01-18T09:50:45.604Z,28.38
2023-01-18T09:53:26.851Z,23.38
2023-01-18T09:56:02.879Z,27.65
2023-01-18T09:58:51.188Z,16.17
2023-01-18T10:01:26.852Z,25.23
2023-01-18T10:04:10.639Z,29.12
2023-01-18T10:06:51.967Z,24.52
2023-01-18T10:09:30.407Z,17.85
2023-01-18T10:12:13.554Z,25.50
2023-01-18T10:14:51.702Z,25.72
2023-01-18T10:17:28.860Z,28.80
2023-01-18T10:20:02.540Z,22.67
2023-01-18T10:22:46.795Z,21.50
2023-01-18T10:25:31.208Z,21.93
2023-01-18T10:31:06.302Z,14.78
2023-01-18T10:36:21.396Z,29.35
2023-01-18T10:38:56.358Z,21.27
2023-01-18T10:41:31.845Z,22.98
2023-01-18T10:44:04.394Z,22.30
2023-01-18T10:46:37.053Z,24.30
2023-01-18T10:49:14.137Z,23.95
2023-01-18T10:51:48.865Z,20.88
2023-01-18T10:54:24.708Z,24.32
2023-01-18T10:57:05.613Z,20.88
2023-01-18T10:59:42.369Z,27.73
2023-01-18T11:02:24.266Z,28.90
2023-01-18T11:05:02.687Z,20.25
2023-01-18T11:07:34.827Z,29.82
2023-01-18T11:10:09.844Z,19.12
2023-01-18T11:12:48.088Z,22.45
2023-01-18T11:15:26.394Z,25.90
2023-01-18T11:18:02.150Z,26.60
2023-01-18T11:20:37.645Z,23.62
2023-01-18T11:23:19.677Z,21.77
2023-01-18T11:26:07.596Z,27.35
2023-01-18T11:29:00.775Z,27.80
2023-01-18T11:31:36.599Z,24.10
2023-01-18T11:34:13.780Z,21.50
2023-01-18T11:36:47.206Z,24.25
2023-01-18T11:39:30.782Z,22.27
2023-01-18T11:42:25.678Z,23.30
2023-01-18T11:45:10.295Z,24.87
2023-01-18T11:47:54.780Z,23.90
2023-01-18T11:50:39.184Z,22.85
2023-01-18T11:53:18.257Z,22.55
2023-01-18T11:56:01.066Z,21.73
2023-01-18T11:58:36.131Z,26.55
2023-01-18T12:01:15.506Z,26.80
2023-01-18T12:03:57.333Z,20.50
2023-01-18T12:06:44.470Z,25.65
2023-01-18T12:09:37.752Z,23.18
2023-01-18T12:12:41.786Z,19.85
2023-01-18T12:15:51.233Z,22.65
2023-01-18T12:18:55.074Z,20.92
2023-01-18T12:21:38.703Z,25.10
2023-01-18T12:24:26.400Z,22.80
2023-01-18T12:27:01.233Z,21.23
2023-01-18T12:29:53.162Z,16.27
2023-01-18T12:32:45.006Z,15.13
2023-01-18T12:35:28.898Z,20.23
2023-01-18T12:38:12.120Z,21.53
2023-01-18T12:41:08.740Z,11.95
2023-01-18T12:44:06.291Z,19.98
2023-01-18T12:47:03.754Z,17.87
2023-01-18T12:49:38.851Z,22.82
2023-01-18T12:52:19.043Z,18.17
2023-01-18T12:54:58.187Z,23.60
2023-01-18T12:57:31.049Z,20.65
2023-01-18T13:00:10.871Z,19.67
2023-01-18T13:02:48.325Z,19.62
2023-01-18T13:05:31.471Z,15.83
2023-01-18T13:08:06.996Z,14.73
2023-01-18T13:10:40.054Z,15.88
2023-01-18T13:13:15.766Z,14.25
2023-01-18T13:16:10.017Z,16.87
2023-01-18T13:18:57.200Z,20.88
2023-01-18T13:21:50.562Z,18.57
2023-01-18T13:24:31.755Z,22.30
2023-01-18T13:27:13.691Z,19.57
2023-01-18T13:29:47.350Z,14.98
2023-01-18T13:32:27.414Z,16.97
2023-01-18T13:35:19.534Z,20.20
2023-01-18T13:37:56.217Z,18.50
2023-01-18T13:40:34.746Z,19.35
2023-01-18T13:43:09.569Z,15.95
2023-01-18T13:45:45.276Z,18.42
2023-01-18T13:48:37.500Z,13.68
2023-01-18T13:51:10.269Z,14.13
2023-01-18T13:53:51.977Z,23.42
2023-01-18T13:56:29.705Z,13.15
2023-01-18T13:59:18.619Z,12.15
2023-01-18T14:01:53.697Z,17.82
2023-01-18T14:04:34.548Z,16.90
2023-01-18T14:07:08.814Z,14.98
2023-01-18T14:09:46.671Z,15.25
2023-01-18T14:12:22.276Z,19.17
2023-01-18T14:15:06.889Z,25.62
2023-01-18T14:17:57.813Z,18.70
2023-01-18T14:20:37.401Z,17.20
2023-01-18T14:23:18.425Z,19.00
2023-01-18T14:25:59.849Z,20.52
2023-01-18T14:28:49.894Z,15.80
2023-01-18T14:31:28.493Z,17.75
2023-01-18T14:34:02.446Z,19.77
2023-01-18T14:36:37.323Z,19.45
2023-01-18T14:39:14.319Z,15.20
2023-01-18T14:41:49.320Z,13.50
2023-01-18T14:44:24.824Z,17.85
2023-01-18T14:47:10.710Z,16.35
2023-01-18T14:49:38.101Z,17.95
2023-01-18T14:52:13.815Z,13.90
2023-01-18T14:54:52.868Z,22.45
2023-01-18T14:57:26.162Z,17.42
2023-01-18T15:00:07.724Z,17.80
2023-01-18T15:02:40.551Z,16.52
2023-01-18T15:05:17.284Z,19.10
2023-01-18T15:07:54.288Z,19.70
2023-01-18T15:10:28.235Z,16.32
2023-01-18T15:13:03.505Z,17.05
2023-01-18T15:15:38.685Z,16.90
2023-01-18T15:18:13.709Z,15.75
2023-01-18T15:20:55.244Z,17.15
2023-01-18T15:23:30.642Z,22.58
2023-01-18T15:26:03.743Z,18.52
2023-01-18T15:28:36.865Z,18.52
2023-01-18T15:31:18.326Z,15.53
2023-01-18T15:33:51.167Z,16.37
2023-01-18T15:36:23.732Z,19.90
2023-01-18T15:38:57.206Z,16.80
2023-01-18T15:41:30.910Z,15.25
2023-01-18T15:44:03.543Z,20.52
2023-01-18T15:46:39.188Z,15.68
2023-01-18T15:49:15.104Z,17.42
2023-01-18T15:51:55.647Z,18.05
2023-01-18T15:54:30.775Z,14.05
2023-01-18T15:57:17.382Z,9.43
2023-01-18T15:59:50.209Z,15.90
2023-01-18T16:02:24.367Z,12.03
2023-01-18T16:05:11.495Z,13.18
2023-01-18T16:07:44.103Z,12.05
2023-01-18T16:10:27.016Z,12.75
2023-01-18T16:13:36.269Z,16.17
2023-01-18T16:16:17.117Z,12.75
2023-01-18T16:19:13.657Z,9.13
2023-01-18T16:21:57.902Z,12.28
2023-01-18T16:24:38.375Z,24.47
2023-01-18T16:27:13.681Z,10.90
2023-01-18T16:29:48.916Z,12.10
2023-01-18T16:32:29.809Z,13.25
2023-01-18T16:35:11.174Z,12.15
2023-01-18T16:37:45.365Z,18.60
2023-01-18T16:40:22.891Z,15.78
2023-01-18T16:42:59.962Z,12.88
2023-01-18T16:45:35.461Z,11.68
2023-01-18T16:48:09.220Z,15.63
2023-01-18T16:50:43.980Z,15.55
2023-01-18T16:53:18.851Z,14.95
2023-01-18T16:55:51.574Z,12.13
2023-01-18T16:58:24.204Z,15.63
2023-01-18T17:01:08.121Z,16.32
2023-01-18T17:03:40.620Z,19.87
2023-01-18T17:06:21.264Z,15.40
2023-01-18T17:08:53.999Z,17.25
2023-01-18T17:11:26.439Z,13.30
2023-01-18T17:13:58.398Z,18.73
2023-01-18T17:16:31.035Z,19.87
2023-01-18T17:19:03.020Z,18.07
2023-01-18T17:21:35.206Z,14.05
2023-01-18T17:24:07.586Z,22.27
2023-01-18T17:26:42.069Z,16.62
2023-01-18T17:29:19.059Z,17.70
2023-01-18T17:31:53.157Z,16.60
2023-01-18T17:34:28.702Z,16.60
2023-01-18T17:37:00.995Z,20.85
2023-01-18T17:39:43.656Z,17.90
2023-01-18T17:42:07.734Z,15.25
2023-01-18T17:47:12.454Z,19.85
2023-01-18T17:49:44.708Z,21.07
2023-01-18T17:52:16.930Z,25.95
2023-01-18T17:54:49.303Z,26.02
2023-01-18T17:57:21.572Z,23.83
2023-01-18T17:59:55.447Z,21.62
2023-01-18T18:02:27.920Z,18.92
2023-01-18T18:05:00.329Z,19.55
2023-01-18T18:07:32.942Z,22.35
2023-01-18T18:10:06.706Z,15.90
2023-01-18T18:12:39.110Z,19.70
2023-01-18T18:15:11.390Z,18.87
2023-01-18T18:17:43.387Z,22.05
2023-01-18T18:20:16.033Z,17.92
2023-01-18T18:22:48.682Z,20.65
2023-01-18T18:25:21.157Z,9.78
2023-01-18T18:27:53.344Z,22.48
2023-01-18T18:30:25.419Z,26.93
2023-01-18T18:32:58.461Z,21.70
2023-01-18T18:35:32.102Z,19.90
2023-01-18T18:38:04.029Z,15.70
2023-01-18T18:40:36.450Z,22.02
2023-01-18T18:43:09.366Z,19.82
2023-01-18T18:45:41.916Z,21.27
2023-01-18T18:48:14.017Z,14.70
2023-01-18T18:50:47.477Z,20.85
2023-01-18T18:53:24.003Z,26.57
2023-01-18T18:55:54.910Z,21.68
2023-01-18T18:58:27.180Z,18.95
2023-01-18T19:00:59.442Z,23.20
2023-01-18T19:03:31.667Z,20.08
2023-01-18T19:06:03.844Z,18.73
2023-01-18T19:08:35.915Z,21.20
2023-01-18T19:11:08.561Z,20.12
2023-01-18T19:13:40.900Z,22.40
2023-01-18T19:16:13.567Z,17.42
2023-01-18T19:18:45.629Z,19.92
2023-01-18T19:21:18.521Z,21.33
2023-01-18T19:23:50.768Z,21.00
2023-01-18T19:26:23.100Z,22.50
2023-01-18T19:28:55.666Z,22.90
2023-01-18T19:31:29.054Z,24.90
2023-01-18T19:34:02.175Z,27.02
2023-01-18T19:36:35.018Z,25.00
2023-01-18T19:39:14.605Z,23.12
2023-01-18T19:41:40.799Z,25.80
2023-01-18T19:44:13.261Z,20.27
2023-01-18T19:46:45.514Z,24.82
2023-01-18T19:49:19.264Z,25.57
2023-01-18T19:51:51.943Z,25.50
2023-01-18T19:54:24.282Z,27.10
2023-01-18T19:56:56.281Z,26.23
2023-01-18T19:59:28.512Z,27.42
2023-01-18T20:02:01.231Z,27.40
2023-01-18T20:04:34.083Z,30.52
2023-01-18T20:07:06.405Z,24.82
2023-01-18T20:09:43.359Z,26.00
2023-01-18T20:12:13.541Z,19.10
2023-01-18T20:14:45.785Z,23.80
2023-01-18T20:17:18.548Z,27.90
2023-01-18T20:19:52.374Z,37.50
2023-01-18T20:22:25.231Z,36.20
2023-01-18T20:24:58.042Z,27.30
2023-01-18T20:27:30.068Z,31.37
2023-01-18T20:30:02.590Z,32.30
2023-01-18T20:32:34.890Z,30.02
2023-01-18T20:35:08.060Z,27.60
2023-01-18T20:37:41.779Z,30.97
2023-01-18T20:40:14.434Z,29.72
2023-01-18T20:42:46.783Z,35.03
2023-01-18T20:45:19.924Z,36.75
2023-01-18T20:47:52.156Z,28.47
2023-01-18T20:50:25.156Z,29.90
2023-01-18T20:52:58.104Z,35.03
2023-01-18T20:55:30.654Z,30.97
2023-01-18T20:58:02.715Z,30.37
2023-01-18T21:00:34.887Z,34.25
2023-01-18T21:03:07.271Z,31.82
2023-01-18T21:05:40.713Z,28.92
2023-01-18T21:08:15.419Z,33.30
2023-01-18T21:10:48.887Z,44.47
2023-01-18T21:13:21.126Z,37.23
2023-01-18T21:16:00.937Z,21.12
2023-01-18T21:18:33.112Z,35.65
2023-01-18T21:21:05.579Z,36.42
2023-01-18T21:23:41.648Z,37.20
2023-01-18T21:26:14.282Z,33.18
2023-01-18T21:28:46.528Z,35.70
2023-01-18T21:31:18.947Z,37.75
2023-01-18T21:33:51.275Z,33.63
2023-01-18T21:36:23.522Z,32.28
2023-01-18T21:38:55.640Z,31.82
2023-01-18T21:41:45.459Z,32.00
2023-01-18T21:44:35.249Z,34.05
2023-01-18T21:47:07.455Z,25.95
2023-01-18T21:50:11.433Z,28.35
2023-01-18T21:52:33.541Z,33.00
2023-01-18T21:55:06.130Z,22.65
2023-01-18T21:57:38.830Z,32.65
2023-01-18T22:00:13.104Z,30.97
2023-01-18T22:05:16.328Z,38.85
2023-01-18T22:07:51.246Z,33.50
2023-01-18T22:10:24.284Z,33.75
2023-01-18T22:12:56.550Z,34.95
2023-01-18T22:15:28.634Z,29.63
2023-01-18T22:18:01.083Z,26.42
2023-01-18T22:20:33.649Z,30.68
2023-01-18T22:23:05.765Z,34.60
2023-01-18T22:25:38.113Z,20.15
2023-01-18T22:28:11.010Z,27.55
2023-01-18T22:30:43.315Z,32.17
2023-01-18T22:33:17.501Z,35.43
2023-01-18T22:35:49.437Z,32.78
2023-01-18T22:38:21.625Z,33.45
2023-01-18T22:41:04.877Z,19.98
2023-01-18T22:43:37.402Z,26.48
2023-01-18T22:46:12.023Z,29.27
2023-01-18T22:48:45.399Z,27.25
2023-01-18T22:51:19.939Z,31.80
2023-01-18T22:53:53.465Z,29.05
2023-01-18T22:56:26.696Z,27.62
2023-01-18T22:59:00.133Z,28.13
2023-01-18T23:01:34.304Z,26.63
2023-01-18T23:06:48.274Z,24.63
2023-01-18T23:09:20.511Z,15.75
2023-01-18T23:11:53.086Z,23.57
2023-01-18T23:14:43.095Z,22.05
2023-01-18T23:17:32.768Z,23.52
2023-01-18T23:20:10.319Z,24.63
2023-01-18T23:22:42.664Z,20.52
2023-01-18T23:25:15.344Z,21.42
2023-01-18T23:27:47.552Z,24.20
2023-01-18T23:30:20.149Z,25.15
2023-01-18T23:32:52.169Z,28.07
2023-01-18T23:35:24.518Z,20.80
2023-01-18T23:37:57.308Z,23.73
2023-01-18T23:40:47.494Z,21.05
2023-01-18T23:43:37.225Z,24.57
2023-01-18T23:46:32.101Z,34.88
2023-01-18T23:52:10.842Z,22.87
2023-01-18T23:54:43.003Z,27.37
2023-01-18T23:57:15.557Z,24.23
2023-01-18T23:59:48.489Z,21.05
